This is the latest recevied weather packets stored in our database for station/object N6SPP. If no packets are shown the sender has not sent any weather packets the latest 10 day(s).
| Time | Temp. | Humidity | Pressure | Rain* | Wind** | Luminosity | Snow |
|---|---|---|---|---|---|---|---|
| 1778093098 | 21.67° C | 61% | 1022.6 hPa | 0 mm | - | 752 W/m² | - |
| 1778092795 | 21.67° C | 62% | 1022.6 hPa | 0 mm | - | 745 W/m² | - |
| 1778092490 | 21.67° C | 62% | 1022.6 hPa | 0 mm | - | 741 W/m² | - |
| 1778092187 | 21.11° C | 62% | 1022.4 hPa | 0 mm | - | 732 W/m² | - |
| 1778091885 | 22.22° C | 58% | 1022.5 hPa | 0 mm | - | 727 W/m² | - |
| 1778091582 | 21.11° C | 60% | 1022.6 hPa | 0 mm | - | 715 W/m² | - |
| 1778091280 | 22.22° C | 57% | 1022.6 hPa | 0 mm | - | 706 W/m² | - |
| 1778090976 | 22.22° C | 57% | 1022.5 hPa | 0 mm | - | 698 W/m² | - |
| 1778090673 | 21.11° C | 61% | 1022.5 hPa | 0 mm | - | 691 W/m² | - |
| 1778090370 | 21.11° C | 62% | 1022.6 hPa | 0 mm | - | 682 W/m² | - |
| 1778090066 | 20.56° C | 62% | 1022.5 hPa | 0 mm | - | 672 W/m² | - |
| 1778089763 | 20.56° C | 61% | 1022.7 hPa | 0 mm | - | 658 W/m² | - |
| 1778089461 | 21.11° C | 60% | 1022.7 hPa | 0 mm | - | 648 W/m² | - |
| 1778089158 | 20° C | 63% | 1022.6 hPa | 0 mm | - | 640 W/m² | - |
| 1778088854 | 20.56° C | 63% | 1022.5 hPa | 0 mm | - | 598 W/m² | - |
| 1778088552 | 20° C | 63% | 1022.7 hPa | 0 mm | - | 618 W/m² | - |
| 1778088247 | 20° C | 62% | 1022.7 hPa | 0 mm | - | 606 W/m² | - |
| 1778087945 | 20° C | 64% | 1022.8 hPa | 0 mm | - | 597 W/m² | - |
| 1778087642 | 18.89° C | 65% | 1022.7 hPa | 0 mm | - | 588 W/m² | - |
| 1778087335 | 19.44° C | 64% | 1022.7 hPa | 0 mm | - | 563 W/m² | - |
| 1778087030 | 18.33° C | 66% | 1022.7 hPa | 0 mm | - | 601 W/m² | - |
| 1778086730 | 19.44° C | 65% | 1022.6 hPa | 0 mm | - | 506 W/m² | - |
| 1778086427 | 18.89° C | 67% | 1022.6 hPa | 0 mm | - | 567 W/m² | - |
| 1778086123 | 18.33° C | 67% | 1022.7 hPa | 0 mm | - | 551 W/m² | - |
| 1778085820 | 17.78° C | 67% | 1022.7 hPa | 0 mm | - | 464 W/m² | - |
* Rain latest hour (hover to see other rain measurements)
** Current wind speed in m/s (hover to see current wind gust speed)